createdAt,value
2023-05-09T00:02:22.372Z,2.30
2023-05-09T00:04:49.786Z,2.47
2023-05-09T00:07:17.124Z,2.42
2023-05-09T00:09:44.320Z,2.47
2023-05-09T00:12:12.412Z,2.70
2023-05-09T00:14:40.735Z,2.45
2023-05-09T00:17:08.308Z,2.72
2023-05-09T00:19:35.575Z,2.42
2023-05-09T00:22:02.825Z,2.40
2023-05-09T00:24:30.060Z,2.47
2023-05-09T00:26:57.311Z,2.33
2023-05-09T00:29:24.607Z,2.33
2023-05-09T00:31:51.887Z,2.17
2023-05-09T00:34:19.141Z,2.50
2023-05-09T00:36:46.596Z,2.30
2023-05-09T00:39:13.828Z,2.58
2023-05-09T00:41:41.078Z,2.50
2023-05-09T00:44:08.380Z,2.40
2023-05-09T00:46:35.688Z,2.22
2023-05-09T00:49:03.011Z,2.10
2023-05-09T00:51:30.443Z,2.38
2023-05-09T00:53:57.744Z,2.40
2023-05-09T00:56:25.025Z,2.40
2023-05-09T00:58:52.633Z,2.22
2023-05-09T01:01:19.960Z,2.17
2023-05-09T01:03:47.853Z,2.20
2023-05-09T01:06:23.402Z,2.42
2023-05-09T01:08:55.044Z,2.20
2023-05-09T01:11:34.500Z,2.42
2023-05-09T01:14:21.955Z,2.40
2023-05-09T01:16:55.153Z,2.30
2023-05-09T01:19:25.445Z,2.40
2023-05-09T01:21:53.632Z,2.15
2023-05-09T01:24:41.147Z,2.13
2023-05-09T01:27:33.832Z,2.40
2023-05-09T01:30:03.882Z,2.25
2023-05-09T01:32:32.901Z,2.25
2023-05-09T01:35:01.119Z,2.45
2023-05-09T01:37:32.192Z,2.58
2023-05-09T01:40:01.550Z,2.15
2023-05-09T01:42:31.805Z,2.42
2023-05-09T01:44:59.461Z,2.28
2023-05-09T01:47:27.115Z,2.10
2023-05-09T01:49:56.392Z,1.90
2023-05-09T01:52:24.163Z,2.25
2023-05-09T01:54:54.940Z,2.20
2023-05-09T01:57:22.652Z,2.58
2023-05-09T01:59:50.902Z,2.20
2023-05-09T02:02:18.297Z,2.38
2023-05-09T02:04:46.050Z,2.40
2023-05-09T02:07:13.585Z,2.15
2023-05-09T02:09:40.909Z,2.10
2023-05-09T02:12:08.296Z,2.17
2023-05-09T02:14:35.768Z,2.20
2023-05-09T02:17:07.011Z,2.17
2023-05-09T02:19:37.235Z,2.25
2023-05-09T02:22:04.980Z,2.10
2023-05-09T02:24:33.330Z,2.00
2023-05-09T02:27:01.916Z,2.20
2023-05-09T02:29:38.561Z,2.25
2023-05-09T02:32:08.153Z,2.30
2023-05-09T02:34:36.079Z,1.95
2023-05-09T02:37:03.956Z,2.13
2023-05-09T02:39:31.684Z,2.40
2023-05-09T02:42:04.395Z,2.08
2023-05-09T02:44:31.693Z,2.15
2023-05-09T02:47:01.592Z,1.92
2023-05-09T02:49:32.326Z,2.22
2023-05-09T02:52:00.119Z,2.22
2023-05-09T02:54:27.379Z,1.92
2023-05-09T02:56:54.613Z,2.00
2023-05-09T02:59:21.948Z,2.27
2023-05-09T03:01:49.323Z,1.90
2023-05-09T03:04:16.697Z,2.10
2023-05-09T03:06:44.072Z,2.00
2023-05-09T03:09:11.547Z,2.20
2023-05-09T03:11:38.765Z,2.30
2023-05-09T03:14:08.411Z,2.20
2023-05-09T03:16:35.903Z,2.28
2023-05-09T03:19:03.560Z,2.00
2023-05-09T03:21:32.093Z,2.30
2023-05-09T03:23:59.484Z,2.08
2023-05-09T03:26:26.754Z,2.30
2023-05-09T03:28:53.988Z,2.00
2023-05-09T03:31:23.819Z,2.03
2023-05-09T03:33:51.113Z,2.20
2023-05-09T03:36:18.422Z,2.03
2023-05-09T03:38:45.659Z,2.08
2023-05-09T03:41:13.737Z,2.07
2023-05-09T03:46:08.092Z,2.17
2023-05-09T03:48:35.859Z,2.10
2023-05-09T03:51:03.140Z,2.13
2023-05-09T03:53:30.535Z,2.00
2023-05-09T03:55:57.785Z,1.80
2023-05-09T03:58:25.024Z,2.00
2023-05-09T04:00:52.218Z,1.90
2023-05-09T04:03:19.607Z,1.93
2023-05-09T04:05:46.959Z,2.10
2023-05-09T04:08:14.631Z,1.90
2023-05-09T04:10:44.692Z,2.00
2023-05-09T04:13:14.451Z,1.92
2023-05-09T04:15:41.693Z,1.75
2023-05-09T04:18:09.170Z,1.95
2023-05-09T04:20:36.561Z,2.15
2023-05-09T04:23:03.806Z,2.00
2023-05-09T04:25:31.654Z,1.90
2023-05-09T04:27:58.893Z,2.00
2023-05-09T04:30:28.787Z,1.80
2023-05-09T04:32:56.099Z,2.00
2023-05-09T04:35:23.542Z,1.80
2023-05-09T04:37:53.293Z,2.00
2023-05-09T04:40:20.611Z,1.80
2023-05-09T04:42:47.857Z,2.00
2023-05-09T04:45:15.784Z,1.87
2023-05-09T04:47:45.666Z,1.98
2023-05-09T04:50:13.078Z,1.92
2023-05-09T04:52:40.368Z,2.05
2023-05-09T04:55:08.221Z,2.00
2023-05-09T04:57:35.504Z,2.28
2023-05-09T05:00:02.739Z,1.83
2023-05-09T05:02:30.024Z,2.10
2023-05-09T05:05:10.185Z,2.00
2023-05-09T05:07:44.796Z,1.70
2023-05-09T05:10:12.043Z,2.10
2023-05-09T05:12:39.353Z,1.93
2023-05-09T05:15:06.854Z,2.05
2023-05-09T05:17:34.828Z,1.63
2023-05-09T05:20:02.113Z,1.85
2023-05-09T05:22:31.609Z,1.90
2023-05-09T05:24:59.904Z,2.00
2023-05-09T05:27:27.147Z,2.10
2023-05-09T05:29:54.418Z,1.70
2023-05-09T05:32:21.674Z,1.93
2023-05-09T05:34:49.289Z,1.90
2023-05-09T05:37:16.560Z,1.92
2023-05-09T05:39:43.802Z,1.90
2023-05-09T05:42:11.096Z,1.80
2023-05-09T05:44:38.342Z,1.85
2023-05-09T05:47:05.583Z,1.70
2023-05-09T05:49:32.855Z,1.47
2023-05-09T05:52:00.089Z,1.70
2023-05-09T05:54:27.457Z,1.67
2023-05-09T05:56:54.698Z,1.70
2023-05-09T05:59:21.929Z,1.80
2023-05-09T06:01:49.140Z,1.90
2023-05-09T06:04:16.933Z,2.00
2023-05-09T06:06:46.910Z,1.92
2023-05-09T06:09:14.220Z,1.80
2023-05-09T06:11:41.464Z,1.90
2023-05-09T06:14:08.737Z,1.97
2023-05-09T06:16:36.087Z,1.70
2023-05-09T06:19:03.378Z,1.60
2023-05-09T06:21:30.659Z,1.90
2023-05-09T06:24:08.417Z,1.77
2023-05-09T06:26:39.430Z,1.70
2023-05-09T06:29:07.594Z,2.00
2023-05-09T06:31:39.350Z,1.90
2023-05-09T06:34:06.799Z,1.80
2023-05-09T06:36:34.279Z,1.70
2023-05-09T06:39:01.752Z,1.95
2023-05-09T06:41:28.977Z,2.10
2023-05-09T06:43:56.297Z,1.80
2023-05-09T06:46:26.454Z,1.92
2023-05-09T06:48:55.861Z,2.10
2023-05-09T06:51:23.147Z,1.70
2023-05-09T06:53:50.998Z,1.90
2023-05-09T06:56:20.226Z,1.73
2023-05-09T06:58:47.661Z,1.90
2023-05-09T07:01:15.123Z,2.00
2023-05-09T07:03:42.397Z,1.70
2023-05-09T07:06:12.224Z,1.93
2023-05-09T07:08:39.438Z,1.63
2023-05-09T07:11:06.727Z,1.80
2023-05-09T07:13:34.039Z,1.90
2023-05-09T07:16:01.355Z,1.60
2023-05-09T07:18:28.730Z,1.63
2023-05-09T07:20:58.241Z,1.58
2023-05-09T07:23:27.060Z,1.67
2023-05-09T07:26:01.414Z,1.70
2023-05-09T07:28:28.694Z,1.88
2023-05-09T07:30:56.853Z,1.80
2023-05-09T07:33:24.189Z,1.65
2023-05-09T07:35:52.995Z,1.88
2023-05-09T07:38:20.402Z,1.88
2023-05-09T07:40:47.654Z,2.10
2023-05-09T07:43:14.899Z,1.80
2023-05-09T07:45:42.201Z,1.70
2023-05-09T07:48:09.667Z,1.50
2023-05-09T07:50:37.015Z,1.88
2023-05-09T07:53:04.287Z,3.90
2023-05-09T07:55:31.530Z,3.10
2023-05-09T07:57:58.834Z,2.50
2023-05-09T08:00:26.168Z,1.90
2023-05-09T08:02:54.167Z,2.10
2023-05-09T08:07:51.179Z,1.85
2023-05-09T08:10:18.474Z,1.80
2023-05-09T08:12:45.844Z,2.03
2023-05-09T08:15:13.405Z,1.60
2023-05-09T08:17:43.359Z,2.00
2023-05-09T08:20:13.330Z,2.10
2023-05-09T08:22:41.292Z,2.10
2023-05-09T08:25:09.064Z,1.90
2023-05-09T08:27:36.332Z,1.77
2023-05-09T08:30:03.714Z,1.80
2023-05-09T08:32:31.030Z,1.80
2023-05-09T08:34:58.287Z,2.00
2023-05-09T08:37:27.424Z,1.83
2023-05-09T08:39:54.674Z,1.90
2023-05-09T08:42:25.473Z,1.90
2023-05-09T08:44:53.763Z,2.00
2023-05-09T08:47:21.390Z,1.70
2023-05-09T08:49:49.404Z,1.67
2023-05-09T08:52:16.859Z,2.15
2023-05-09T08:54:46.742Z,1.88
2023-05-09T08:57:15.717Z,1.88
2023-05-09T08:59:43.528Z,1.90
2023-05-09T09:02:14.559Z,1.98
2023-05-09T09:04:42.088Z,1.80
2023-05-09T09:07:10.654Z,1.73
2023-05-09T09:09:38.060Z,1.80
2023-05-09T09:12:07.696Z,1.65
2023-05-09T09:14:37.556Z,2.00
2023-05-09T09:17:06.802Z,1.92
2023-05-09T09:19:34.938Z,1.80
2023-05-09T09:22:04.533Z,2.75
2023-05-09T09:24:32.385Z,3.00
2023-05-09T09:27:05.761Z,2.83
2023-05-09T09:29:33.885Z,2.50
2023-05-09T09:32:05.088Z,2.67
2023-05-09T09:34:32.435Z,2.45
2023-05-09T09:36:59.894Z,2.65
2023-05-09T09:39:27.177Z,2.90
2023-05-09T09:41:54.466Z,2.40
2023-05-09T09:44:24.182Z,2.58
2023-05-09T09:46:55.894Z,2.50
2023-05-09T09:49:23.970Z,2.50
2023-05-09T09:54:19.119Z,2.47
2023-05-09T09:56:47.741Z,2.35
2023-05-09T09:59:16.100Z,2.50
2023-05-09T10:02:07.157Z,2.25
2023-05-09T10:04:36.673Z,2.20
2023-05-09T10:07:07.803Z,1.90
2023-05-09T10:09:37.783Z,1.73
2023-05-09T10:12:06.428Z,1.90
2023-05-09T10:14:35.486Z,1.90
2023-05-09T10:17:04.465Z,2.10
2023-05-09T10:19:32.312Z,1.90
2023-05-09T10:22:02.272Z,2.25
2023-05-09T10:24:49.735Z,1.70
2023-05-09T10:27:20.092Z,1.60
2023-05-09T10:29:50.656Z,1.80
2023-05-09T10:32:30.312Z,1.80
2023-05-09T10:34:59.587Z,2.00
2023-05-09T10:37:27.242Z,2.45
2023-05-09T10:39:55.535Z,2.50
2023-05-09T10:42:25.159Z,2.47
2023-05-09T10:44:53.545Z,2.55
2023-05-09T10:47:23.706Z,2.70
2023-05-09T10:49:51.105Z,2.50
2023-05-09T10:52:19.016Z,2.42
2023-05-09T10:54:58.666Z,2.67
2023-05-09T10:57:28.047Z,2.75
2023-05-09T10:59:56.558Z,2.38
2023-05-09T11:02:30.945Z,2.65
2023-05-09T11:05:14.987Z,2.83
2023-05-09T11:07:43.440Z,3.13
2023-05-09T11:10:11.671Z,2.60
2023-05-09T11:13:04.971Z,2.83
2023-05-09T11:15:33.173Z,2.40
2023-05-09T11:20:29.840Z,2.70
2023-05-09T11:22:58.057Z,2.80
2023-05-09T11:25:32.198Z,2.67
2023-05-09T11:28:01.519Z,2.72
2023-05-09T11:30:42.028Z,3.10
2023-05-09T11:33:25.679Z,2.80
2023-05-09T11:36:11.973Z,2.90
2023-05-09T11:38:43.302Z,2.90
2023-05-09T11:41:10.718Z,2.92
2023-05-09T11:43:38.890Z,3.03
2023-05-09T11:46:06.418Z,2.83
2023-05-09T11:48:40.169Z,3.05
2023-05-09T11:51:17.027Z,3.03
2023-05-09T11:53:50.582Z,2.40
2023-05-09T11:56:18.153Z,2.20
2023-05-09T11:58:48.473Z,2.70
2023-05-09T12:01:18.718Z,2.42
2023-05-09T12:03:46.243Z,2.70
2023-05-09T12:06:21.094Z,2.67
2023-05-09T12:08:48.725Z,2.80
2023-05-09T12:11:16.316Z,2.97
2023-05-09T12:13:47.800Z,2.50
2023-05-09T12:16:16.079Z,2.20
2023-05-09T12:18:53.405Z,2.50
2023-05-09T12:21:23.552Z,2.63
2023-05-09T12:23:52.533Z,2.65
2023-05-09T12:26:22.791Z,3.10
2023-05-09T12:28:53.295Z,3.00
2023-05-09T12:31:21.298Z,2.83
2023-05-09T12:33:48.597Z,2.40
2023-05-09T12:36:16.140Z,2.70
2023-05-09T12:38:53.005Z,2.60
2023-05-09T12:41:34.996Z,2.67
2023-05-09T12:44:04.520Z,2.20
2023-05-09T12:46:32.109Z,1.90
2023-05-09T12:48:59.702Z,1.98
2023-05-09T12:51:27.003Z,1.52
2023-05-09T12:53:56.566Z,1.87
2023-05-09T12:56:24.188Z,1.63
2023-05-09T12:58:55.633Z,1.30
2023-05-09T13:01:29.881Z,1.38
2023-05-09T13:04:07.406Z,1.30
2023-05-09T13:06:36.241Z,1.52
2023-05-09T13:09:06.368Z,1.55
2023-05-09T13:11:34.102Z,1.25
2023-05-09T13:14:03.208Z,1.30
2023-05-09T13:16:32.746Z,1.48
2023-05-09T13:19:01.591Z,1.25
2023-05-09T13:21:28.853Z,1.20
2023-05-09T13:23:56.142Z,1.30
2023-05-09T13:26:23.545Z,1.20
2023-05-09T13:28:50.808Z,1.40
2023-05-09T13:31:20.705Z,1.40
2023-05-09T13:33:50.054Z,1.30
2023-05-09T13:36:19.118Z,1.38
2023-05-09T13:38:46.786Z,1.33
2023-05-09T13:41:19.924Z,1.40
2023-05-09T13:43:47.448Z,1.30
2023-05-09T13:46:14.752Z,1.20
2023-05-09T13:48:42.057Z,1.20
2023-05-09T13:51:09.971Z,1.10
2023-05-09T13:53:39.048Z,1.00
2023-05-09T13:56:09.892Z,1.10
2023-05-09T13:58:37.491Z,1.30
2023-05-09T14:01:04.852Z,1.30
2023-05-09T14:03:32.246Z,1.00
2023-05-09T14:05:59.949Z,1.17
2023-05-09T14:08:27.250Z,1.20
2023-05-09T14:10:54.794Z,1.65
2023-05-09T14:13:22.244Z,1.17
2023-05-09T14:15:49.750Z,1.35
2023-05-09T14:18:20.083Z,1.40
2023-05-09T14:20:48.314Z,0.98
2023-05-09T14:23:15.626Z,0.93
2023-05-09T14:25:42.909Z,1.10
2023-05-09T14:28:10.392Z,0.90
2023-05-09T14:30:37.702Z,1.40
2023-05-09T14:33:05.026Z,0.80
2023-05-09T14:35:34.214Z,0.90
2023-05-09T14:38:01.847Z,0.90
2023-05-09T14:40:32.165Z,1.30
2023-05-09T14:43:02.428Z,1.08
2023-05-09T14:45:30.059Z,1.33
2023-05-09T14:47:57.664Z,0.82
2023-05-09T14:50:25.006Z,1.10
2023-05-09T14:52:54.536Z,1.23
2023-05-09T14:55:23.163Z,1.13
2023-05-09T14:57:50.537Z,1.52
2023-05-09T15:00:21.955Z,1.48
2023-05-09T15:02:49.988Z,1.17
2023-05-09T15:05:17.721Z,1.65
2023-05-09T15:07:44.969Z,1.20
2023-05-09T15:10:12.327Z,1.20
2023-05-09T15:12:39.640Z,1.25
2023-05-09T15:15:17.002Z,1.10
2023-05-09T15:17:44.710Z,1.02
2023-05-09T15:20:13.551Z,1.15
2023-05-09T15:22:41.089Z,0.98
2023-05-09T15:25:08.636Z,1.25
2023-05-09T15:27:36.392Z,0.80
2023-05-09T15:30:06.960Z,1.20
2023-05-09T15:32:34.724Z,1.02
2023-05-09T15:35:02.113Z,1.13
2023-05-09T15:37:29.657Z,1.27
2023-05-09T15:39:56.957Z,1.20
2023-05-09T15:42:25.284Z,1.13
2023-05-09T15:44:52.929Z,0.90
2023-05-09T15:47:20.169Z,0.93
2023-05-09T15:49:47.420Z,1.10
2023-05-09T15:52:14.906Z,1.00
2023-05-09T15:54:45.241Z,0.90
2023-05-09T15:57:13.456Z,1.00
2023-05-09T15:59:41.284Z,1.15
2023-05-09T16:02:08.604Z,0.90
2023-05-09T16:04:35.968Z,0.80
2023-05-09T16:07:03.802Z,0.90
2023-05-09T16:09:31.146Z,0.73
2023-05-09T16:11:58.386Z,1.10
2023-05-09T16:14:25.773Z,0.80
2023-05-09T16:16:53.928Z,0.80
2023-05-09T16:21:48.462Z,0.93
2023-05-09T16:24:15.775Z,0.80
2023-05-09T16:26:43.025Z,1.00
2023-05-09T16:29:11.207Z,1.10
2023-05-09T16:31:38.481Z,0.98
2023-05-09T16:34:05.799Z,0.93
2023-05-09T16:36:33.593Z,0.85
2023-05-09T16:39:03.269Z,0.98
2023-05-09T16:41:30.476Z,0.90
2023-05-09T16:43:58.755Z,0.97
2023-05-09T16:46:26.338Z,0.77
2023-05-09T16:48:53.907Z,0.90
2023-05-09T16:51:23.620Z,0.80
2023-05-09T16:53:50.918Z,0.95
2023-05-09T16:56:18.183Z,1.17
2023-05-09T16:58:45.508Z,0.80
2023-05-09T17:01:12.773Z,1.00
2023-05-09T17:03:40.089Z,0.90
2023-05-09T17:06:07.768Z,0.90
2023-05-09T17:08:35.275Z,0.82
2023-05-09T17:11:02.603Z,0.80
2023-05-09T17:13:29.968Z,0.90
2023-05-09T17:15:57.533Z,0.60
2023-05-09T17:18:35.865Z,0.88
2023-05-09T17:21:04.686Z,0.80
2023-05-09T17:23:31.983Z,1.08
2023-05-09T17:26:01.254Z,0.80
2023-05-09T17:28:28.819Z,0.90
2023-05-09T17:30:57.582Z,0.80
2023-05-09T17:33:24.840Z,0.77
2023-05-09T17:35:52.421Z,0.80
2023-05-09T17:38:19.799Z,0.88
2023-05-09T17:40:47.376Z,0.93
2023-05-09T17:43:14.674Z,0.90
2023-05-09T17:45:42.395Z,1.10
2023-05-09T17:48:09.784Z,0.80
2023-05-09T17:50:37.041Z,0.75
2023-05-09T17:53:04.295Z,0.90
2023-05-09T17:55:31.611Z,0.93
2023-05-09T17:57:58.876Z,0.80
2023-05-09T18:00:26.158Z,0.90
2023-05-09T18:02:53.484Z,1.07
2023-05-09T18:05:20.768Z,1.00
2023-05-09T18:07:48.153Z,0.90
2023-05-09T18:10:15.607Z,1.10
2023-05-09T18:12:45.243Z,0.80
2023-05-09T18:15:12.608Z,1.25
2023-05-09T18:17:39.977Z,1.00
2023-05-09T18:20:10.267Z,1.20
2023-05-09T18:22:37.543Z,1.00
2023-05-09T18:25:04.917Z,1.10
2023-05-09T18:27:32.261Z,1.00
2023-05-09T18:29:59.477Z,1.20
2023-05-09T18:32:26.965Z,0.97
2023-05-09T18:34:54.288Z,1.20
2023-05-09T18:37:22.779Z,1.00
2023-05-09T18:39:50.138Z,1.10
2023-05-09T18:42:17.396Z,0.88
2023-05-09T18:44:44.718Z,0.90
2023-05-09T18:47:12.144Z,1.17
2023-05-09T18:49:39.443Z,1.05
2023-05-09T18:52:06.868Z,1.23
2023-05-09T18:54:35.635Z,1.17
2023-05-09T18:57:03.463Z,1.00
2023-05-09T18:59:30.719Z,1.20
2023-05-09T19:01:58.061Z,1.20
2023-05-09T19:04:25.701Z,1.00
2023-05-09T19:06:53.038Z,1.10
2023-05-09T19:09:20.323Z,1.00
2023-05-09T19:11:47.699Z,1.20
2023-05-09T19:14:14.931Z,1.02
2023-05-09T19:16:44.494Z,0.90
2023-05-09T19:19:11.751Z,1.33
2023-05-09T19:21:41.199Z,1.10
2023-05-09T19:24:09.174Z,1.00
2023-05-09T19:26:36.398Z,1.35
2023-05-09T19:29:08.018Z,0.90
2023-05-09T19:31:38.046Z,1.08
2023-05-09T19:34:05.518Z,0.90
2023-05-09T19:36:33.640Z,1.15
2023-05-09T19:41:28.016Z,0.88
2023-05-09T19:43:55.484Z,1.10
2023-05-09T19:46:22.940Z,1.08
2023-05-09T19:48:50.739Z,1.15
2023-05-09T19:51:20.575Z,1.00
2023-05-09T19:53:48.039Z,1.08
2023-05-09T19:56:17.662Z,0.93
2023-05-09T19:58:49.594Z,1.20
2023-05-09T20:01:19.061Z,0.95
2023-05-09T20:03:52.263Z,1.30
2023-05-09T20:06:20.101Z,1.00
2023-05-09T20:08:47.647Z,0.85
2023-05-09T20:11:15.265Z,1.00
2023-05-09T20:13:43.297Z,1.00
2023-05-09T20:18:37.961Z,0.90
2023-05-09T20:21:09.648Z,1.13
2023-05-09T20:23:38.021Z,1.00
2023-05-09T20:26:05.385Z,1.10
2023-05-09T20:28:32.805Z,1.10
2023-05-09T20:31:00.368Z,0.80
2023-05-09T20:33:27.625Z,0.88
2023-05-09T20:35:54.959Z,1.10
2023-05-09T20:38:22.413Z,0.90
2023-05-09T20:40:49.667Z,0.90
2023-05-09T20:43:16.917Z,1.00
2023-05-09T20:45:44.218Z,1.17
2023-05-09T20:48:14.010Z,1.00
2023-05-09T20:50:41.324Z,0.77
2023-05-09T20:53:08.656Z,0.90
2023-05-09T20:55:35.916Z,1.00
2023-05-09T20:58:05.467Z,0.90
2023-05-09T21:00:32.959Z,0.88
2023-05-09T21:03:02.801Z,0.90
2023-05-09T21:05:30.080Z,1.15
2023-05-09T21:07:57.339Z,0.90
2023-05-09T21:10:24.581Z,0.93
2023-05-09T21:12:51.835Z,0.90
2023-05-09T21:15:19.158Z,0.90
2023-05-09T21:17:46.699Z,0.82
2023-05-09T21:20:14.490Z,0.80
2023-05-09T21:22:41.999Z,1.00
2023-05-09T21:25:10.395Z,0.97
2023-05-09T21:27:37.655Z,0.80
2023-05-09T21:30:05.248Z,0.93
2023-05-09T21:32:32.544Z,0.90
2023-05-09T21:34:59.807Z,0.90
2023-05-09T21:37:27.144Z,1.00
2023-05-09T21:39:54.430Z,1.00
2023-05-09T21:42:23.950Z,0.80
2023-05-09T21:44:51.206Z,0.77
2023-05-09T21:47:18.599Z,0.87
2023-05-09T21:49:45.854Z,0.80
2023-05-09T21:52:13.130Z,0.97
2023-05-09T21:54:40.711Z,0.90
2023-05-09T21:57:07.937Z,0.90
2023-05-09T21:59:35.278Z,0.80
2023-05-09T22:02:05.291Z,0.88
2023-05-09T22:04:32.593Z,0.90
2023-05-09T22:07:02.362Z,0.83
2023-05-09T22:09:29.911Z,0.73
2023-05-09T22:11:59.625Z,0.90
2023-05-09T22:14:27.103Z,0.70
2023-05-09T22:16:54.379Z,1.00
2023-05-09T22:19:23.920Z,1.10
2023-05-09T22:21:51.212Z,0.80
2023-05-09T22:24:18.509Z,0.70
2023-05-09T22:26:45.841Z,0.90
2023-05-09T22:29:16.474Z,0.55
2023-05-09T22:31:44.350Z,0.80
2023-05-09T22:34:11.649Z,0.88
2023-05-09T22:36:38.897Z,0.80
2023-05-09T22:39:06.239Z,1.10
2023-05-09T22:41:33.572Z,0.90
2023-05-09T22:44:00.813Z,0.80
2023-05-09T22:46:28.179Z,0.70
2023-05-09T22:48:55.489Z,0.90
2023-05-09T22:51:22.764Z,0.80
2023-05-09T22:53:49.989Z,0.90
2023-05-09T22:56:17.230Z,0.83
2023-05-09T22:58:44.560Z,0.90
2023-05-09T23:01:11.814Z,0.93
2023-05-09T23:03:39.076Z,0.60
2023-05-09T23:06:06.513Z,0.90
2023-05-09T23:08:34.351Z,0.70
2023-05-09T23:11:01.608Z,0.90
2023-05-09T23:13:28.920Z,0.60
2023-05-09T23:15:56.311Z,0.77
2023-05-09T23:18:23.947Z,1.00
2023-05-09T23:20:51.432Z,0.70
2023-05-09T23:23:18.643Z,0.70
2023-05-09T23:25:46.085Z,0.60
2023-05-09T23:28:13.482Z,0.80
2023-05-09T23:30:40.736Z,0.80
2023-05-09T23:33:07.952Z,0.80
2023-05-09T23:35:35.333Z,0.80
2023-05-09T23:38:04.399Z,0.80
2023-05-09T23:40:31.651Z,0.80
2023-05-09T23:42:59.060Z,0.70
2023-05-09T23:45:26.439Z,0.70
2023-05-09T23:47:53.683Z,0.90
2023-05-09T23:50:20.997Z,0.80
2023-05-09T23:52:49.346Z,0.70
2023-05-09T23:55:16.679Z,0.90
2023-05-09T23:57:43.977Z,0.70
